sensor_id;sensor_type;location;lat;lon;timestamp;pressure;altitude;pressure_sealevel;temperature
78961;BMP280;68362;45.970;12.646;2024-03-08T00:00:21;101357.19;;;6.21
78961;BMP280;68362;45.970;12.646;2024-03-08T00:01:43;101363.38;;;6.12
78961;BMP280;68362;45.970;12.646;2024-03-08T00:02:48;101370.34;;;6.20
78961;BMP280;68362;45.970;12.646;2024-03-08T00:03:53;101367.28;;;6.25
78961;BMP280;68362;45.970;12.646;2024-03-08T00:04:56;101359.34;;;6.41
78961;BMP280;68362;45.970;12.646;2024-03-08T00:06:00;101371.97;;;6.21
78961;BMP280;68362;45.970;12.646;2024-03-08T00:07:03;101366.13;;;6.19
78961;BMP280;68362;45.970;12.646;2024-03-08T00:08:06;101366.28;;;6.26
78961;BMP280;68362;45.970;12.646;2024-03-08T00:09:12;101369.22;;;6.22
78961;BMP280;68362;45.970;12.646;2024-03-08T00:10:15;101373.38;;;6.40
78961;BMP280;68362;45.970;12.646;2024-03-08T00:11:19;101377.38;;;6.19
78961;BMP280;68362;45.970;12.646;2024-03-08T00:12:23;101370.81;;;6.32
78961;BMP280;68362;45.970;12.646;2024-03-08T00:13:26;101377.03;;;6.22
78961;BMP280;68362;45.970;12.646;2024-03-08T00:14:29;101381.78;;;6.19
78961;BMP280;68362;45.970;12.646;2024-03-08T00:15:31;101377.97;;;6.30
78961;BMP280;68362;45.970;12.646;2024-03-08T00:16:34;101375.91;;;6.25
78961;BMP280;68362;45.970;12.646;2024-03-08T00:17:37;101376.34;;;6.29
78961;BMP280;68362;45.970;12.646;2024-03-08T00:18:41;101378.97;;;6.29
78961;BMP280;68362;45.970;12.646;2024-03-08T00:19:44;101383.56;;;6.18
78961;BMP280;68362;45.970;12.646;2024-03-08T00:20:46;101374.13;;;6.09
78961;BMP280;68362;45.970;12.646;2024-03-08T00:21:49;101377.75;;;6.00
78961;BMP280;68362;45.970;12.646;2024-03-08T00:22:52;101374.00;;;6.03
78961;BMP280;68362;45.970;12.646;2024-03-08T00:23:55;101368.25;;;6.15
78961;BMP280;68362;45.970;12.646;2024-03-08T00:24:58;101370.69;;;6.17
78961;BMP280;68362;45.970;12.646;2024-03-08T00:26:00;101378.53;;;6.01
78961;BMP280;68362;45.970;12.646;2024-03-08T00:27:04;101376.72;;;6.09
78961;BMP280;68362;45.970;12.646;2024-03-08T00:28:07;101369.91;;;6.08
78961;BMP280;68362;45.970;12.646;2024-03-08T00:29:09;101369.03;;;6.24
78961;BMP280;68362;45.970;12.646;2024-03-08T00:30:12;101372.63;;;6.23
78961;BMP280;68362;45.970;12.646;2024-03-08T00:31:17;101363.69;;;6.17
78961;BMP280;68362;45.970;12.646;2024-03-08T00:32:20;101366.75;;;6.21
78961;BMP280;68362;45.970;12.646;2024-03-08T00:33:23;101365.38;;;6.02
78961;BMP280;68362;45.970;12.646;2024-03-08T00:34:26;101367.66;;;5.97
78961;BMP280;68362;45.970;12.646;2024-03-08T00:35:28;101359.84;;;5.89
78961;BMP280;68362;45.970;12.646;2024-03-08T00:36:31;101369.31;;;5.90
78961;BMP280;68362;45.970;12.646;2024-03-08T00:37:33;101355.47;;;5.89
78961;BMP280;68362;45.970;12.646;2024-03-08T00:38:39;101368.31;;;5.91
78961;BMP280;68362;45.970;12.646;2024-03-08T00:39:42;101366.69;;;5.98
78961;BMP280;68362;45.970;12.646;2024-03-08T00:40:45;101366.81;;;6.13
78961;BMP280;68362;45.970;12.646;2024-03-08T00:41:47;101362.34;;;6.30
78961;BMP280;68362;45.970;12.646;2024-03-08T00:42:50;101362.22;;;6.23
78961;BMP280;68362;45.970;12.646;2024-03-08T00:43:55;101362.75;;;6.10
78961;BMP280;68362;45.970;12.646;2024-03-08T00:44:58;101356.88;;;6.08
78961;BMP280;68362;45.970;12.646;2024-03-08T00:46:01;101365.31;;;6.18
78961;BMP280;68362;45.970;12.646;2024-03-08T00:47:04;101366.69;;;5.90
78961;BMP280;68362;45.970;12.646;2024-03-08T00:48:08;101364.13;;;5.82
78961;BMP280;68362;45.970;12.646;2024-03-08T00:49:13;101361.16;;;5.93
78961;BMP280;68362;45.970;12.646;2024-03-08T00:50:15;101364.53;;;6.10
78961;BMP280;68362;45.970;12.646;2024-03-08T00:51:18;101364.09;;;5.90
78961;BMP280;68362;45.970;12.646;2024-03-08T00:52:20;101364.72;;;5.92
78961;BMP280;68362;45.970;12.646;2024-03-08T00:53:23;101363.78;;;5.85
78961;BMP280;68362;45.970;12.646;2024-03-08T00:54:25;101359.41;;;5.77
78961;BMP280;68362;45.970;12.646;2024-03-08T00:55:28;101359.22;;;5.79
78961;BMP280;68362;45.970;12.646;2024-03-08T00:56:32;101364.25;;;5.88
78961;BMP280;68362;45.970;12.646;2024-03-08T00:57:36;101370.13;;;6.07
78961;BMP280;68362;45.970;12.646;2024-03-08T00:58:38;101365.38;;;5.94
78961;BMP280;68362;45.970;12.646;2024-03-08T00:59:41;101365.56;;;5.92
78961;BMP280;68362;45.970;12.646;2024-03-08T01:00:44;101366.34;;;6.01
78961;BMP280;68362;45.970;12.646;2024-03-08T01:01:47;101370.09;;;5.98
78961;BMP280;68362;45.970;12.646;2024-03-08T01:02:49;101373.53;;;5.91
78961;BMP280;68362;45.970;12.646;2024-03-08T01:03:52;101366.88;;;5.80
78961;BMP280;68362;45.970;12.646;2024-03-08T01:04:55;101366.41;;;5.85
78961;BMP280;68362;45.970;12.646;2024-03-08T01:05:57;101366.38;;;5.93
78961;BMP280;68362;45.970;12.646;2024-03-08T01:07:03;101370.53;;;6.18
78961;BMP280;68362;45.970;12.646;2024-03-08T01:08:06;101374.66;;;6.05
78961;BMP280;68362;45.970;12.646;2024-03-08T01:09:10;101367.66;;;5.97
78961;BMP280;68362;45.970;12.646;2024-03-08T01:10:12;101365.56;;;5.92
78961;BMP280;68362;45.970;12.646;2024-03-08T01:11:15;101365.06;;;5.89
78961;BMP280;68362;45.970;12.646;2024-03-08T01:12:18;101364.94;;;5.74
78961;BMP280;68362;45.970;12.646;2024-03-08T01:13:21;101365.69;;;5.99
78961;BMP280;68362;45.970;12.646;2024-03-08T01:14:24;101368.84;;;5.78
78961;BMP280;68362;45.970;12.646;2024-03-08T01:15:30;101372.28;;;5.87
78961;BMP280;68362;45.970;12.646;2024-03-08T01:16:33;101364.59;;;5.93
78961;BMP280;68362;45.970;12.646;2024-03-08T01:17:36;101360.19;;;5.94
78961;BMP280;68362;45.970;12.646;2024-03-08T01:18:39;101360.84;;;5.88
78961;BMP280;68362;45.970;12.646;2024-03-08T01:19:41;101359.22;;;5.79
78961;BMP280;68362;45.970;12.646;2024-03-08T01:20:43;101353.38;;;5.85
78961;BMP280;68362;45.970;12.646;2024-03-08T01:21:46;101355.50;;;5.73
78961;BMP280;68362;45.970;12.646;2024-03-08T01:22:48;101358.41;;;5.78
78961;BMP280;68362;45.970;12.646;2024-03-08T01:23:50;101350.63;;;5.86
78961;BMP280;68362;45.970;12.646;2024-03-08T01:24:53;101356.31;;;5.65
78961;BMP280;68362;45.970;12.646;2024-03-08T01:25:55;101354.34;;;5.84
78961;BMP280;68362;45.970;12.646;2024-03-08T01:27:00;101351.75;;;5.84
78961;BMP280;68362;45.970;12.646;2024-03-08T01:28:03;101344.16;;;5.58
78961;BMP280;68362;45.970;12.646;2024-03-08T01:29:06;101338.75;;;5.67
78961;BMP280;68362;45.970;12.646;2024-03-08T01:30:09;101339.88;;;5.73
78961;BMP280;68362;45.970;12.646;2024-03-08T01:31:11;101337.63;;;5.62
78961;BMP280;68362;45.970;12.646;2024-03-08T01:32:14;101333.19;;;5.70
78961;BMP280;68362;45.970;12.646;2024-03-08T01:33:16;101337.63;;;5.54
78961;BMP280;68362;45.970;12.646;2024-03-08T01:34:19;101336.50;;;5.48
78961;BMP280;68362;45.970;12.646;2024-03-08T01:35:21;101341.06;;;5.54
78961;BMP280;68362;45.970;12.646;2024-03-08T01:36:24;101339.91;;;5.57
78961;BMP280;68362;45.970;12.646;2024-03-08T01:37:27;101339.91;;;5.57
78961;BMP280;68362;45.970;12.646;2024-03-08T01:38:30;101345.59;;;5.60
78961;BMP280;68362;45.970;12.646;2024-03-08T01:39:32;101342.03;;;5.45
78961;BMP280;68362;45.970;12.646;2024-03-08T01:40:34;101344.31;;;5.56
78961;BMP280;68362;45.970;12.646;2024-03-08T01:41:38;101335.34;;;5.51
78961;BMP280;68362;45.970;12.646;2024-03-08T01:42:42;101337.47;;;5.55
78961;BMP280;68362;45.970;12.646;2024-03-08T01:43:44;101343.00;;;5.60
78961;BMP280;68362;45.970;12.646;2024-03-08T01:44:47;101339.09;;;5.56
78961;BMP280;68362;45.970;12.646;2024-03-08T01:45:49;101337.13;;;5.50
78961;BMP280;68362;45.970;12.646;2024-03-08T01:46:53;101333.88;;;5.64
78961;BMP280;68362;45.970;12.646;2024-03-08T01:47:55;101334.06;;;5.63
78961;BMP280;68362;45.970;12.646;2024-03-08T01:49:00;101329.31;;;5.58
78961;BMP280;68362;45.970;12.646;2024-03-08T01:50:04;101328.63;;;5.81
78961;BMP280;68362;45.970;12.646;2024-03-08T01:51:09;101334.91;;;6.03
78961;BMP280;68362;45.970;12.646;2024-03-08T01:52:13;101336.75;;;5.94
78961;BMP280;68362;45.970;12.646;2024-03-08T01:53:16;101331.84;;;5.91
78961;BMP280;68362;45.970;12.646;2024-03-08T01:54:20;101336.41;;;5.97
78961;BMP280;68362;45.970;12.646;2024-03-08T01:55:22;101331.97;;;6.14
78961;BMP280;68362;45.970;12.646;2024-03-08T01:56:24;101334.34;;;6.23
78961;BMP280;68362;45.970;12.646;2024-03-08T01:57:28;101329.81;;;6.09
78961;BMP280;68362;45.970;12.646;2024-03-08T01:58:31;101332.75;;;6.14
78961;BMP280;68362;45.970;12.646;2024-03-08T01:59:35;101334.06;;;6.18
78961;BMP280;68362;45.970;12.646;2024-03-08T02:00:39;101330.34;;;6.36
78961;BMP280;68362;45.970;12.646;2024-03-08T02:01:42;101328.41;;;6.38
78961;BMP280;68362;45.970;12.646;2024-03-08T02:02:46;101336.31;;;6.21
78961;BMP280;68362;45.970;12.646;2024-03-08T02:03:49;101325.28;;;6.11
78961;BMP280;68362;45.970;12.646;2024-03-08T02:04:51;101330.72;;;5.93
78961;BMP280;68362;45.970;12.646;2024-03-08T02:05:55;101327.91;;;6.03
78961;BMP280;68362;45.970;12.646;2024-03-08T02:06:57;101331.56;;;5.86
78961;BMP280;68362;45.970;12.646;2024-03-08T02:08:03;101326.78;;;5.97
78961;BMP280;68362;45.970;12.646;2024-03-08T02:09:05;101333.66;;;5.90
78961;BMP280;68362;45.970;12.646;2024-03-08T02:10:08;101324.91;;;5.83
78961;BMP280;68362;45.970;12.646;2024-03-08T02:11:10;101324.38;;;5.80
78961;BMP280;68362;45.970;12.646;2024-03-08T02:12:14;101330.22;;;5.90
78961;BMP280;68362;45.970;12.646;2024-03-08T02:13:16;101324.75;;;5.77
78961;BMP280;68362;45.970;12.646;2024-03-08T02:14:18;101320.16;;;5.87
78961;BMP280;68362;45.970;12.646;2024-03-08T02:15:20;101329.31;;;5.75
78961;BMP280;68362;45.970;12.646;2024-03-08T02:16:23;101320.66;;;5.74
78961;BMP280;68362;45.970;12.646;2024-03-08T02:17:26;101320.78;;;5.89
78961;BMP280;68362;45.970;12.646;2024-03-08T02:18:29;101325.06;;;5.73
78961;BMP280;68362;45.970;12.646;2024-03-08T02:19:31;101320.25;;;6.10
78961;BMP280;68362;45.970;12.646;2024-03-08T02:20:35;101319.38;;;5.86
78961;BMP280;68362;45.970;12.646;2024-03-08T02:21:37;101324.75;;;5.77
78961;BMP280;68362;45.970;12.646;2024-03-08T02:22:39;101315.97;;;5.78
78961;BMP280;68362;45.970;12.646;2024-03-08T02:23:42;101310.09;;;5.76
78961;BMP280;68362;45.970;12.646;2024-03-08T02:24:44;101307.81;;;5.72
78961;BMP280;68362;45.970;12.646;2024-03-08T02:25:47;101314.41;;;6.00
78961;BMP280;68362;45.970;12.646;2024-03-08T02:26:49;101309.44;;;5.73
78961;BMP280;68362;45.970;12.646;2024-03-08T02:27:52;101310.09;;;5.76
78961;BMP280;68362;45.970;12.646;2024-03-08T02:28:54;101313.34;;;5.69
78961;BMP280;68362;45.970;12.646;2024-03-08T02:29:57;101306.53;;;5.60
78961;BMP280;68362;45.970;12.646;2024-03-08T02:30:59;101311.56;;;5.62
78961;BMP280;68362;45.970;12.646;2024-03-08T02:32:01;101310.28;;;5.66
78961;BMP280;68362;45.970;12.646;2024-03-08T02:33:06;101307.81;;;5.81
78961;BMP280;68362;45.970;12.646;2024-03-08T02:34:09;101306.56;;;6.08
78961;BMP280;68362;45.970;12.646;2024-03-08T02:35:11;101303.31;;;6.06
78961;BMP280;68362;45.970;12.646;2024-03-08T02:36:13;101306.09;;;6.04
78961;BMP280;68362;45.970;12.646;2024-03-08T02:37:16;101304.63;;;6.02
78961;BMP280;68362;45.970;12.646;2024-03-08T02:38:21;101304.88;;;6.23
78961;BMP280;68362;45.970;12.646;2024-03-08T02:39:24;101311.44;;;6.11
78961;BMP280;68362;45.970;12.646;2024-03-08T02:40:26;101310.53;;;6.27
78961;BMP280;68362;45.970;12.646;2024-03-08T02:41:28;101318.25;;;6.12
78961;BMP280;68362;45.970;12.646;2024-03-08T02:42:31;101311.91;;;6.14
78961;BMP280;68362;45.970;12.646;2024-03-08T02:43:33;101309.81;;;6.10
78961;BMP280;68362;45.970;12.646;2024-03-08T02:44:35;101311.03;;;6.30
78961;BMP280;68362;45.970;12.646;2024-03-08T02:45:38;101307.66;;;6.21
78961;BMP280;68362;45.970;12.646;2024-03-08T02:46:40;101311.16;;;6.37
78961;BMP280;68362;45.970;12.646;2024-03-08T02:47:42;101311.78;;;6.39
78961;BMP280;68362;45.970;12.646;2024-03-08T02:48:45;101308.78;;;6.50
78961;BMP280;68362;45.970;12.646;2024-03-08T02:49:47;101306.44;;;6.01
78961;BMP280;68362;45.970;12.646;2024-03-08T02:50:49;101314.38;;;6.16
78961;BMP280;68362;45.970;12.646;2024-03-08T02:51:53;101312.91;;;6.13
78961;BMP280;68362;45.970;12.646;2024-03-08T02:52:56;101310.66;;;6.02
78961;BMP280;68362;45.970;12.646;2024-03-08T02:53:58;101312.56;;;6.08
78961;BMP280;68362;45.970;12.646;2024-03-08T02:55:01;101308.09;;;5.86
78961;BMP280;68362;45.970;12.646;2024-03-08T02:56:04;101315.22;;;6.00
78961;BMP280;68362;45.970;12.646;2024-03-08T02:57:10;101309.75;;;5.87
78961;BMP280;68362;45.970;12.646;2024-03-08T02:58:14;101313.81;;;5.81
78961;BMP280;68362;45.970;12.646;2024-03-08T02:59:16;101316.34;;;6.06
78961;BMP280;68362;45.970;12.646;2024-03-08T03:00:20;101310.97;;;6.07
78961;BMP280;68362;45.970;12.646;2024-03-08T03:01:23;101315.22;;;5.92
78961;BMP280;68362;45.970;12.646;2024-03-08T03:02:25;101318.16;;;5.97
78961;BMP280;68362;45.970;12.646;2024-03-08T03:03:28;101314.56;;;6.06
78961;BMP280;68362;45.970;12.646;2024-03-08T03:04:30;101302.34;;;6.38
78961;BMP280;68362;45.970;12.646;2024-03-08T03:05:32;101315.53;;;6.05
78961;BMP280;68362;45.970;12.646;2024-03-08T03:06:36;101309.56;;;6.28
78961;BMP280;68362;45.970;12.646;2024-03-08T03:07:38;101310.63;;;6.10
78961;BMP280;68362;45.970;12.646;2024-03-08T03:08:40;101307.25;;;6.02
78961;BMP280;68362;45.970;12.646;2024-03-08T03:09:44;101306.78;;;6.29
78961;BMP280;68362;45.970;12.646;2024-03-08T03:10:47;101307.91;;;6.35
78961;BMP280;68362;45.970;12.646;2024-03-08T03:11:49;101301.81;;;6.11
78961;BMP280;68362;45.970;12.646;2024-03-08T03:12:52;101304.50;;;6.34
78961;BMP280;68362;45.970;12.646;2024-03-08T03:13:54;101310.19;;;6.30
78961;BMP280;68362;45.970;12.646;2024-03-08T03:14:58;101305.38;;;6.18
78961;BMP280;68362;45.970;12.646;2024-03-08T03:16:00;101301.19;;;6.40
78961;BMP280;68362;45.970;12.646;2024-03-08T03:17:02;101308.88;;;6.42
78961;BMP280;68362;45.970;12.646;2024-03-08T03:18:05;101303.31;;;6.37
78961;BMP280;68362;45.970;12.646;2024-03-08T03:19:11;101309.56;;;6.28
78961;BMP280;68362;45.970;12.646;2024-03-08T03:20:13;101303.69;;;6.34
78961;BMP280;68362;45.970;12.646;2024-03-08T03:21:16;101302.00;;;6.41
78961;BMP280;68362;45.970;12.646;2024-03-08T03:22:19;101312.44;;;6.41
78961;BMP280;68362;45.970;12.646;2024-03-08T03:23:22;101312.75;;;6.38
78961;BMP280;68362;45.970;12.646;2024-03-08T03:24:25;101314.00;;;6.50
78961;BMP280;68362;45.970;12.646;2024-03-08T03:25:27;101310.69;;;6.56
78961;BMP280;68362;45.970;12.646;2024-03-08T03:26:35;101316.28;;;6.53
78961;BMP280;68362;45.970;12.646;2024-03-08T03:27:39;101317.31;;;6.36
78961;BMP280;68362;45.970;12.646;2024-03-08T03:28:42;101314.13;;;6.34
78961;BMP280;68362;45.970;12.646;2024-03-08T03:29:45;101311.03;;;6.30
78961;BMP280;68362;45.970;12.646;2024-03-08T03:30:47;101310.19;;;6.30
78961;BMP280;68362;45.970;12.646;2024-03-08T03:31:50;101308.22;;;6.40
78961;BMP280;68362;45.970;12.646;2024-03-08T03:32:53;101312.25;;;6.11
78961;BMP280;68362;45.970;12.646;2024-03-08T03:33:56;101311.25;;;6.12
78961;BMP280;68362;45.970;12.646;2024-03-08T03:35:03;101307.78;;;6.28
78961;BMP280;68362;45.970;12.646;2024-03-08T03:36:07;101308.59;;;6.29
78961;BMP280;68362;45.970;12.646;2024-03-08T03:37:12;101307.59;;;6.30
78961;BMP280;68362;45.970;12.646;2024-03-08T03:38:14;101308.03;;;6.41
78961;BMP280;68362;45.970;12.646;2024-03-08T03:39:16;101311.13;;;6.06
78961;BMP280;68362;45.970;12.646;2024-03-08T03:40:22;101311.31;;;6.04
78961;BMP280;68362;45.970;12.646;2024-03-08T03:41:27;101306.66;;;5.83
78961;BMP280;68362;45.970;12.646;2024-03-08T03:42:29;101300.34;;;5.78
78961;BMP280;68362;45.970;12.646;2024-03-08T03:43:31;101304.78;;;6.00
78961;BMP280;68362;45.970;12.646;2024-03-08T03:44:34;101305.19;;;6.20
78961;BMP280;68362;45.970;12.646;2024-03-08T03:45:36;101308.94;;;6.17
78961;BMP280;68362;45.970;12.646;2024-03-08T03:46:41;101306.56;;;6.08
78961;BMP280;68362;45.970;12.646;2024-03-08T03:47:46;101309.28;;;6.22
78961;BMP280;68362;45.970;12.646;2024-03-08T03:48:48;101307.31;;;6.25
78961;BMP280;68362;45.970;12.646;2024-03-08T03:49:51;101302.47;;;6.13
78961;BMP280;68362;45.970;12.646;2024-03-08T03:50:55;101307.41;;;6.00
78961;BMP280;68362;45.970;12.646;2024-03-08T03:51:57;101307.16;;;5.87
78961;BMP280;68362;45.970;12.646;2024-03-08T03:53:00;101296.28;;;6.14
78961;BMP280;68362;45.970;12.646;2024-03-08T03:54:02;101306.28;;;5.94
78961;BMP280;68362;45.970;12.646;2024-03-08T03:55:05;101297.44;;;6.04
78961;BMP280;68362;45.970;12.646;2024-03-08T03:56:07;101299.53;;;6.08
78961;BMP280;68362;45.970;12.646;2024-03-08T03:57:10;101293.09;;;5.96
78961;BMP280;68362;45.970;12.646;2024-03-08T03:58:14;101300.47;;;5.84
78961;BMP280;68362;45.970;12.646;2024-03-08T03:59:17;101299.16;;;5.80
78961;BMP280;68362;45.970;12.646;2024-03-08T04:00:20;101297.94;;;5.60
78961;BMP280;68362;45.970;12.646;2024-03-08T04:01:22;101290.88;;;5.68
78961;BMP280;68362;45.970;12.646;2024-03-08T04:02:25;101302.47;;;5.66
78961;BMP280;68362;45.970;12.646;2024-03-08T04:03:28;101302.91;;;5.86
78961;BMP280;68362;45.970;12.646;2024-03-08T04:04:30;101303.03;;;5.92
78961;BMP280;68362;45.970;12.646;2024-03-08T04:05:33;101297.75;;;6.09
78961;BMP280;68362;45.970;12.646;2024-03-08T04:06:35;101296.22;;;6.31
78961;BMP280;68362;45.970;12.646;2024-03-08T04:07:38;101296.13;;;6.39
78961;BMP280;68362;45.970;12.646;2024-03-08T04:08:40;101293.66;;;6.45
78961;BMP280;68362;45.970;12.646;2024-03-08T04:09:43;101300.63;;;6.53
78961;BMP280;68362;45.970;12.646;2024-03-08T04:10:45;101290.34;;;6.29
78961;BMP280;68362;45.970;12.646;2024-03-08T04:11:48;101300.00;;;6.51
78961;BMP280;68362;45.970;12.646;2024-03-08T04:12:52;101298.47;;;6.34
78961;BMP280;68362;45.970;12.646;2024-03-08T04:13:54;101292.84;;;6.45
78961;BMP280;68362;45.970;12.646;2024-03-08T04:14:56;101300.00;;;6.20
78961;BMP280;68362;45.970;12.646;2024-03-08T04:15:58;101299.06;;;6.44
78961;BMP280;68362;45.970;12.646;2024-03-08T04:17:01;101300.28;;;6.56
78961;BMP280;68362;45.970;12.646;2024-03-08T04:18:04;101299.69;;;6.46
78961;BMP280;68362;45.970;12.646;2024-03-08T04:19:07;101299.06;;;6.36
78961;BMP280;68362;45.970;12.646;2024-03-08T04:20:10;101298.75;;;6.39
78961;BMP280;68362;45.970;12.646;2024-03-08T04:21:13;101301.47;;;6.22
78961;BMP280;68362;45.970;12.646;2024-03-08T04:22:16;101303.78;;;6.09
78961;BMP280;68362;45.970;12.646;2024-03-08T04:23:19;101306.91;;;6.36
78961;BMP280;68362;45.970;12.646;2024-03-08T04:24:21;101300.88;;;6.43
78961;BMP280;68362;45.970;12.646;2024-03-08T04:25:23;101300.97;;;6.50
78961;BMP280;68362;45.970;12.646;2024-03-08T04:26:26;101304.72;;;6.47
78961;BMP280;68362;45.970;12.646;2024-03-08T04:27:28;101308.69;;;6.43
78961;BMP280;68362;45.970;12.646;2024-03-08T04:28:31;101302.78;;;6.50
78961;BMP280;68362;45.970;12.646;2024-03-08T04:29:33;101306.38;;;6.48
78961;BMP280;68362;45.970;12.646;2024-03-08T04:30:38;101298.78;;;6.62
78961;BMP280;68362;45.970;12.646;2024-03-08T04:31:41;101310.50;;;6.66
78961;BMP280;68362;45.970;12.646;2024-03-08T04:32:44;101307.38;;;6.62
78961;BMP280;68362;45.970;12.646;2024-03-08T04:33:46;101303.63;;;6.65
78961;BMP280;68362;45.970;12.646;2024-03-08T04:34:48;101305.22;;;6.51
78961;BMP280;68362;45.970;12.646;2024-03-08T04:35:51;101303.66;;;6.42
78961;BMP280;68362;45.970;12.646;2024-03-08T04:36:53;101305.59;;;6.40
78961;BMP280;68362;45.970;12.646;2024-03-08T04:37:56;101307.88;;;6.43
78961;BMP280;68362;45.970;12.646;2024-03-08T04:39:00;101309.81;;;6.41
78961;BMP280;68362;45.970;12.646;2024-03-08T04:40:02;101305.28;;;6.43
78961;BMP280;68362;45.970;12.646;2024-03-08T04:41:04;101305.00;;;6.61
78961;BMP280;68362;45.970;12.646;2024-03-08T04:42:07;101299.41;;;6.64
78961;BMP280;68362;45.970;12.646;2024-03-08T04:43:12;101310.69;;;6.56
78961;BMP280;68362;45.970;12.646;2024-03-08T04:44:14;101307.91;;;6.66
78961;BMP280;68362;45.970;12.646;2024-03-08T04:45:17;101306.19;;;6.73
78961;BMP280;68362;45.970;12.646;2024-03-08T04:46:19;101303.81;;;6.63
78961;BMP280;68362;45.970;12.646;2024-03-08T04:47:22;101303.81;;;6.71
78961;BMP280;68362;45.970;12.646;2024-03-08T04:48:24;101304.94;;;6.69
78961;BMP280;68362;45.970;12.646;2024-03-08T04:49:28;101304.19;;;6.60
78961;BMP280;68362;45.970;12.646;2024-03-08T04:50:30;101308.41;;;6.61
78961;BMP280;68362;45.970;12.646;2024-03-08T04:51:33;101312.94;;;6.67
78961;BMP280;68362;45.970;12.646;2024-03-08T04:52:35;101307.91;;;6.66
78961;BMP280;68362;45.970;12.646;2024-03-08T04:53:38;101314.56;;;6.68
78961;BMP280;68362;45.970;12.646;2024-03-08T04:54:41;101310.47;;;6.43
78961;BMP280;68362;45.970;12.646;2024-03-08T04:55:43;101312.97;;;6.59
78961;BMP280;68362;45.970;12.646;2024-03-08T04:56:46;101307.00;;;6.51
78961;BMP280;68362;45.970;12.646;2024-03-08T04:57:48;101307.66;;;6.44
78961;BMP280;68362;45.970;12.646;2024-03-08T04:58:50;101303.25;;;6.53
78961;BMP280;68362;45.970;12.646;2024-03-08T04:59:53;101306.13;;;6.58
78961;BMP280;68362;45.970;12.646;2024-03-08T05:00:55;101309.69;;;6.42
78961;BMP280;68362;45.970;12.646;2024-03-08T05:01:57;101310.25;;;6.53
78961;BMP280;68362;45.970;12.646;2024-03-08T05:03:00;101306.53;;;6.47
78961;BMP280;68362;45.970;12.646;2024-03-08T05:04:02;101308.97;;;6.48
78961;BMP280;68362;45.970;12.646;2024-03-08T05:05:08;101308.91;;;6.34
78961;BMP280;68362;45.970;12.646;2024-03-08T05:06:14;101303.22;;;6.30
78961;BMP280;68362;45.970;12.646;2024-03-08T05:07:17;101305.28;;;6.43
78961;BMP280;68362;45.970;12.646;2024-03-08T05:08:19;101309.13;;;6.47
78961;BMP280;68362;45.970;12.646;2024-03-08T05:09:21;101308.84;;;6.65
78961;BMP280;68362;45.970;12.646;2024-03-08T05:10:24;101314.72;;;6.44
78961;BMP280;68362;45.970;12.646;2024-03-08T05:11:26;101310.69;;;6.56
78961;BMP280;68362;45.970;12.646;2024-03-08T05:12:28;101310.00;;;6.39
78961;BMP280;68362;45.970;12.646;2024-03-08T05:13:30;101307.66;;;6.21
78961;BMP280;68362;45.970;12.646;2024-03-08T05:14:33;101310.53;;;6.27
78961;BMP280;68362;45.970;12.646;2024-03-08T05:15:37;101311.28;;;6.43
78961;BMP280;68362;45.970;12.646;2024-03-08T05:16:41;101304.47;;;6.42
78961;BMP280;68362;45.970;12.646;2024-03-08T05:17:43;101307.59;;;6.30
78961;BMP280;68362;45.970;12.646;2024-03-08T05:18:46;101315.09;;;6.33
78961;BMP280;68362;45.970;12.646;2024-03-08T05:19:50;101312.69;;;6.54
78961;BMP280;68362;45.970;12.646;2024-03-08T05:20:53;101312.97;;;6.59
78961;BMP280;68362;45.970;12.646;2024-03-08T05:21:55;101314.25;;;6.63
78961;BMP280;68362;45.970;12.646;2024-03-08T05:22:57;101317.19;;;6.68
78961;BMP280;68362;45.970;12.646;2024-03-08T05:24:02;101318.25;;;6.51
78961;BMP280;68362;45.970;12.646;2024-03-08T05:25:05;101311.19;;;6.60
78961;BMP280;68362;45.970;12.646;2024-03-08T05:26:10;101318.41;;;6.50
78961;BMP280;68362;45.970;12.646;2024-03-08T05:27:12;101315.47;;;6.44
78961;BMP280;68362;45.970;12.646;2024-03-08T05:28:15;101313.50;;;6.55
78961;BMP280;68362;45.970;12.646;2024-03-08T05:29:17;101311.31;;;6.66
78961;BMP280;68362;45.970;12.646;2024-03-08T05:30:20;101310.78;;;6.48
78961;BMP280;68362;45.970;12.646;2024-03-08T05:31:23;101317.97;;;6.38
78961;BMP280;68362;45.970;12.646;2024-03-08T05:32:26;101312.25;;;6.11
78961;BMP280;68362;45.970;12.646;2024-03-08T05:33:32;101319.41;;;6.09
78961;BMP280;68362;45.970;12.646;2024-03-08T05:34:36;101310.69;;;5.94
78961;BMP280;68362;45.970;12.646;2024-03-08T05:35:39;101307.75;;;5.97
78961;BMP280;68362;45.970;12.646;2024-03-08T05:36:42;101309.53;;;6.05
78961;BMP280;68362;45.970;12.646;2024-03-08T05:37:48;101307.13;;;5.95
78961;BMP280;68362;45.970;12.646;2024-03-08T05:38:50;101308.94;;;5.86
78961;BMP280;68362;45.970;12.646;2024-03-08T05:39:52;101307.56;;;5.98
78961;BMP280;68362;45.970;12.646;2024-03-08T05:40:56;101307.00;;;6.19
78961;BMP280;68362;45.970;12.646;2024-03-08T05:41:58;101307.47;;;6.23
78961;BMP280;68362;45.970;12.646;2024-03-08T05:43:00;101301.81;;;6.11
78961;BMP280;68362;45.970;12.646;2024-03-08T05:44:03;101303.16;;;5.99
78961;BMP280;68362;45.970;12.646;2024-03-08T05:45:05;101300.63;;;5.83
78961;BMP280;68362;45.970;12.646;2024-03-08T05:46:08;101303.41;;;5.73
78961;BMP280;68362;45.970;12.646;2024-03-08T05:47:10;101303.13;;;5.60
78961;BMP280;68362;45.970;12.646;2024-03-08T05:48:13;101300.66;;;5.75
78961;BMP280;68362;45.970;12.646;2024-03-08T05:49:15;101307.81;;;5.72
78961;BMP280;68362;45.970;12.646;2024-03-08T05:50:18;101306.50;;;5.68
78961;BMP280;68362;45.970;12.646;2024-03-08T05:51:23;101311.44;;;5.63
78961;BMP280;68362;45.970;12.646;2024-03-08T05:52:25;101315.97;;;5.53
78961;BMP280;68362;45.970;12.646;2024-03-08T05:53:28;101310.25;;;5.74
78961;BMP280;68362;45.970;12.646;2024-03-08T05:54:34;101314.16;;;5.86
78961;BMP280;68362;45.970;12.646;2024-03-08T05:55:36;101328.59;;;5.89
78961;BMP280;68362;45.970;12.646;2024-03-08T05:56:39;101314.66;;;5.73
78961;BMP280;68362;45.970;12.646;2024-03-08T05:57:45;101322.97;;;5.61